createdAt,value
2023-02-13T00:01:07.537Z,7.76
2023-02-13T00:03:35.306Z,7.82
2023-02-13T00:06:03.000Z,7.75
2023-02-13T00:08:31.238Z,7.72
2023-02-13T00:10:59.539Z,7.71
2023-02-13T00:13:28.979Z,7.67
2023-02-13T00:15:57.746Z,7.63
2023-02-13T00:18:25.535Z,7.64
2023-02-13T00:21:01.124Z,7.64
2023-02-13T00:23:30.986Z,7.63
2023-02-13T00:25:58.931Z,7.57
2023-02-13T00:28:28.678Z,7.51
2023-02-13T00:31:03.131Z,7.42
2023-02-13T00:33:31.105Z,7.46
2023-02-13T00:36:04.628Z,7.53
2023-02-13T00:38:32.523Z,7.59
2023-02-13T00:41:00.208Z,7.63
2023-02-13T00:43:29.332Z,7.63
2023-02-13T00:45:58.555Z,7.49
2023-02-13T00:48:26.587Z,7.43
2023-02-13T00:50:54.250Z,7.42
2023-02-13T00:53:22.655Z,7.47
2023-02-13T00:55:50.814Z,7.48
2023-02-13T00:58:19.337Z,7.53
2023-02-13T01:00:48.907Z,7.57
2023-02-13T01:03:17.824Z,7.57
2023-02-13T01:05:46.173Z,7.50
2023-02-13T01:08:14.957Z,7.45
2023-02-13T01:10:43.569Z,7.41
2023-02-13T01:13:11.863Z,7.46
2023-02-13T01:15:41.028Z,7.45
2023-02-13T01:18:11.050Z,7.43
2023-02-13T01:20:38.711Z,7.44
2023-02-13T01:23:06.421Z,7.45
2023-02-13T01:25:34.088Z,7.47
2023-02-13T01:28:01.745Z,7.48
2023-02-13T01:30:29.515Z,7.50
2023-02-13T01:32:57.228Z,7.49
2023-02-13T01:35:26.253Z,7.47
2023-02-13T01:37:53.911Z,7.44
2023-02-13T01:40:21.845Z,7.48
2023-02-13T01:42:49.520Z,7.48
2023-02-13T01:45:25.222Z,7.43
2023-02-13T01:47:57.328Z,7.33
2023-02-13T01:50:33.560Z,7.30
2023-02-13T01:53:11.423Z,7.23
2023-02-13T01:55:45.438Z,7.20
2023-02-13T01:58:18.465Z,7.20
2023-02-13T02:00:49.726Z,7.13
2023-02-13T02:03:24.108Z,7.11
2023-02-13T02:05:56.130Z,7.13
2023-02-13T02:08:24.749Z,7.13
2023-02-13T02:10:52.789Z,7.07
2023-02-13T02:13:22.392Z,7.08
2023-02-13T02:15:51.039Z,7.07
2023-02-13T02:18:20.500Z,7.03
2023-02-13T02:21:25.197Z,7.01
2023-02-13T02:24:24.030Z,7.08
2023-02-13T02:27:15.657Z,7.20
2023-02-13T02:30:18.965Z,7.18
2023-02-13T02:33:09.858Z,7.11
2023-02-13T02:35:47.471Z,7.06
2023-02-13T02:38:32.626Z,7.12
2023-02-13T02:41:09.483Z,7.02
2023-02-13T02:43:53.519Z,6.97
2023-02-13T02:46:31.197Z,7.00
2023-02-13T02:49:24.824Z,6.98
2023-02-13T02:52:04.565Z,6.99
2023-02-13T02:54:54.465Z,7.00
2023-02-13T02:57:26.700Z,7.10
2023-02-13T03:00:27.042Z,7.13
2023-02-13T03:03:12.717Z,7.11
2023-02-13T03:06:02.533Z,7.05
2023-02-13T03:08:44.529Z,7.06
2023-02-13T03:11:44.159Z,6.93
2023-02-13T03:14:15.328Z,6.77
2023-02-13T03:17:01.174Z,6.71
2023-02-13T03:19:55.690Z,6.83
2023-02-13T03:22:35.042Z,6.77
2023-02-13T03:25:11.851Z,6.70
2023-02-13T03:28:04.942Z,6.64
2023-02-13T03:30:41.719Z,6.64
2023-02-13T03:33:24.456Z,6.62
2023-02-13T03:36:21.401Z,6.58
2023-02-13T03:38:59.220Z,6.52
2023-02-13T03:41:31.955Z,6.54
2023-02-13T03:44:08.635Z,6.52
2023-02-13T03:46:41.873Z,6.58
2023-02-13T03:49:32.206Z,6.72
2023-02-13T03:52:04.474Z,6.70
2023-02-13T03:54:57.383Z,6.65
2023-02-13T03:57:43.860Z,6.65
2023-02-13T04:00:14.919Z,6.69
2023-02-13T04:02:53.123Z,6.68
2023-02-13T04:05:25.056Z,6.59
2023-02-13T04:07:52.834Z,6.52
2023-02-13T04:10:24.733Z,6.46
2023-02-13T04:12:58.431Z,6.46
2023-02-13T04:15:31.532Z,6.50
2023-02-13T04:18:06.497Z,6.56
2023-02-13T04:20:34.393Z,6.57
2023-02-13T04:23:06.622Z,6.51
2023-02-13T04:25:36.774Z,6.57
2023-02-13T04:28:05.025Z,6.56
2023-02-13T04:30:32.945Z,6.50
2023-02-13T04:33:00.609Z,6.44
2023-02-13T04:35:28.393Z,6.32
2023-02-13T04:37:56.152Z,6.23
2023-02-13T04:40:23.979Z,6.20
2023-02-13T04:42:53.063Z,6.24
2023-02-13T04:45:20.825Z,6.34
2023-02-13T04:47:52.070Z,6.39
2023-02-13T04:50:19.874Z,6.40
2023-02-13T04:52:48.218Z,6.42
2023-02-13T04:55:16.019Z,6.40
2023-02-13T04:57:43.623Z,6.30
2023-02-13T05:00:14.051Z,6.28
2023-02-13T05:02:41.718Z,6.20
2023-02-13T05:05:09.567Z,6.15
2023-02-13T05:07:37.227Z,6.13
2023-02-13T05:10:06.036Z,6.15
2023-02-13T05:12:33.629Z,6.09
2023-02-13T05:15:01.426Z,6.05
2023-02-13T05:17:30.421Z,6.03
2023-02-13T05:19:59.078Z,6.01
2023-02-13T05:22:44.281Z,5.99
2023-02-13T05:25:11.929Z,5.95
2023-02-13T05:27:39.525Z,5.92
2023-02-13T05:30:07.530Z,5.85
2023-02-13T05:32:36.774Z,5.91
2023-02-13T05:35:04.979Z,5.92
2023-02-13T05:37:32.886Z,5.91
2023-02-13T05:40:00.546Z,5.91
2023-02-13T05:42:28.167Z,5.91
2023-02-13T05:44:55.844Z,5.84
2023-02-13T05:47:23.458Z,5.86
2023-02-13T05:49:52.457Z,5.89
2023-02-13T05:52:20.162Z,5.85
2023-02-13T05:54:47.838Z,5.82
2023-02-13T05:57:15.540Z,5.82
2023-02-13T05:59:43.228Z,5.81
2023-02-13T06:02:10.868Z,5.78
2023-02-13T06:04:38.487Z,5.77
2023-02-13T06:07:07.570Z,5.73
2023-02-13T06:09:35.199Z,5.67
2023-02-13T06:12:02.832Z,5.66
2023-02-13T06:14:30.488Z,5.63
2023-02-13T06:16:58.120Z,5.66
2023-02-13T06:19:25.728Z,5.63
2023-02-13T06:21:53.426Z,5.64
2023-02-13T06:24:22.459Z,5.63
2023-02-13T06:26:50.152Z,5.67
2023-02-13T06:29:18.103Z,5.70
2023-02-13T06:31:45.852Z,5.59
2023-02-13T06:34:13.633Z,5.58
2023-02-13T06:36:42.632Z,5.64
2023-02-13T06:39:11.060Z,5.63
2023-02-13T06:41:40.050Z,5.64
2023-02-13T06:44:08.326Z,5.78
2023-02-13T06:46:36.172Z,5.77
2023-02-13T06:49:03.921Z,5.82
2023-02-13T06:51:31.625Z,5.81
2023-02-13T06:53:59.308Z,5.68
2023-02-13T06:56:27.336Z,5.62
2023-02-13T06:58:56.379Z,5.67
2023-02-13T07:01:24.119Z,5.71
2023-02-13T07:03:51.846Z,5.73
2023-02-13T07:06:19.836Z,5.76
2023-02-13T07:08:47.595Z,5.77
2023-02-13T07:11:19.508Z,5.80
2023-02-13T07:13:47.131Z,5.81
2023-02-13T07:16:16.416Z,5.80
2023-02-13T07:18:44.092Z,5.83
2023-02-13T07:21:11.938Z,5.86
2023-02-13T07:23:39.645Z,5.86
2023-02-13T07:26:08.132Z,5.85
2023-02-13T07:28:35.808Z,5.85
2023-02-13T07:31:05.690Z,5.84
2023-02-13T07:33:35.080Z,5.93
2023-02-13T07:36:03.611Z,5.90
2023-02-13T07:38:31.863Z,5.94
2023-02-13T07:41:00.101Z,6.06
2023-02-13T07:43:29.871Z,6.17
2023-02-13T07:45:59.932Z,6.19
2023-02-13T07:48:28.118Z,6.24
2023-02-13T07:51:01.641Z,6.39
2023-02-13T07:53:29.432Z,6.45
2023-02-13T07:55:57.381Z,6.47
2023-02-13T07:58:25.223Z,6.49
2023-02-13T08:00:52.866Z,6.56
2023-02-13T08:03:20.520Z,6.63
2023-02-13T08:05:49.498Z,6.72
2023-02-13T08:08:18.564Z,6.82
2023-02-13T08:11:03.733Z,6.88
2023-02-13T08:13:31.420Z,6.92
2023-02-13T08:15:59.334Z,6.90
2023-02-13T08:18:27.123Z,7.00
2023-02-13T08:20:54.856Z,7.10
2023-02-13T08:23:23.883Z,7.09
2023-02-13T08:25:51.541Z,7.13
2023-02-13T08:28:19.269Z,7.17
2023-02-13T08:30:46.923Z,7.20
2023-02-13T08:33:14.541Z,7.32
2023-02-13T08:35:42.193Z,7.33
2023-02-13T08:38:10.866Z,7.35
2023-02-13T08:40:40.348Z,7.40
2023-02-13T08:43:08.483Z,7.43
2023-02-13T08:45:36.906Z,7.55
2023-02-13T08:48:05.109Z,7.63
2023-02-13T08:50:34.629Z,7.68
2023-02-13T08:53:03.259Z,7.78
2023-02-13T08:55:31.529Z,7.87
2023-02-13T08:58:02.724Z,7.95
2023-02-13T09:00:30.988Z,8.10
2023-02-13T09:03:01.633Z,8.24
2023-02-13T09:05:31.585Z,8.41
2023-02-13T09:08:01.034Z,8.78
2023-02-13T09:10:28.678Z,9.04
2023-02-13T09:12:56.324Z,9.17
2023-02-13T09:15:25.314Z,9.52
2023-02-13T09:17:52.962Z,10.83
2023-02-13T09:20:20.828Z,12.27
2023-02-13T09:22:48.600Z,12.69
2023-02-13T09:25:16.440Z,12.75
2023-02-13T09:27:44.199Z,13.40
2023-02-13T09:30:14.696Z,16.15
2023-02-13T09:32:43.932Z,19.01
2023-02-13T09:35:11.581Z,20.17
2023-02-13T09:37:39.256Z,20.35
2023-02-13T09:40:08.542Z,20.87
2023-02-13T09:42:37.837Z,21.75
2023-02-13T09:45:09.293Z,23.07
2023-02-13T09:47:40.854Z,25.41
2023-02-13T09:50:15.798Z,26.63
2023-02-13T09:52:46.549Z,26.43
2023-02-13T09:55:19.473Z,26.08
2023-02-13T09:57:54.358Z,25.31
2023-02-13T10:00:25.841Z,25.24
2023-02-13T10:03:19.173Z,24.65
2023-02-13T10:06:00.157Z,24.84
2023-02-13T10:08:54.504Z,24.66
2023-02-13T10:11:35.895Z,25.11
2023-02-13T10:14:12.796Z,24.42
2023-02-13T10:16:44.415Z,23.33
2023-02-13T10:19:20.349Z,23.19
2023-02-13T10:21:54.615Z,21.72
2023-02-13T10:24:32.152Z,20.21
2023-02-13T10:27:02.159Z,19.24
2023-02-13T10:30:01.735Z,18.70
2023-02-13T10:32:36.912Z,19.61
2023-02-13T10:35:17.143Z,20.77
2023-02-13T10:37:51.034Z,22.40
2023-02-13T10:40:20.201Z,25.02
2023-02-13T10:42:57.842Z,27.14
2023-02-13T10:45:43.415Z,28.58
2023-02-13T10:48:27.387Z,30.02
2023-02-13T10:51:03.851Z,30.66
2023-02-13T10:53:50.092Z,29.47
2023-02-13T10:56:28.388Z,29.29
2023-02-13T10:59:08.068Z,28.47
2023-02-13T11:01:43.842Z,25.71
2023-02-13T11:04:15.069Z,22.82
2023-02-13T11:06:44.869Z,20.92
2023-02-13T11:09:14.159Z,19.91
2023-02-13T11:11:43.866Z,19.83
2023-02-13T11:14:15.027Z,20.19
2023-02-13T11:16:50.194Z,20.28
2023-02-13T11:19:21.050Z,21.48
2023-02-13T11:21:54.028Z,22.01
2023-02-13T11:24:25.440Z,22.71
2023-02-13T11:26:55.948Z,22.46
2023-02-13T11:29:27.631Z,22.59
2023-02-13T11:32:25.520Z,23.08
2023-02-13T11:34:54.804Z,23.73
2023-02-13T11:37:25.850Z,24.27
2023-02-13T11:39:56.818Z,23.88
2023-02-13T11:42:30.493Z,23.46
2023-02-13T11:45:01.998Z,23.67
2023-02-13T11:47:48.089Z,25.68
2023-02-13T11:50:25.938Z,27.14
2023-02-13T11:52:59.647Z,28.78
2023-02-13T11:55:40.001Z,27.95
2023-02-13T11:58:25.117Z,26.03
2023-02-13T12:01:10.147Z,25.25
2023-02-13T12:03:38.848Z,25.23
2023-02-13T12:06:13.772Z,25.39
2023-02-13T12:08:43.154Z,23.90
2023-02-13T12:11:25.750Z,22.72
2023-02-13T12:13:54.009Z,22.42
2023-02-13T12:16:31.001Z,22.71
2023-02-13T12:19:01.781Z,23.49
2023-02-13T12:21:43.966Z,24.02
2023-02-13T12:24:25.891Z,23.79
2023-02-13T12:27:00.944Z,23.86
2023-02-13T12:29:54.907Z,23.79
2023-02-13T12:32:33.281Z,23.16
2023-02-13T12:35:19.387Z,22.03
2023-02-13T12:38:09.848Z,21.27
2023-02-13T12:41:03.150Z,22.41
2023-02-13T12:44:06.439Z,23.01
2023-02-13T12:46:41.715Z,21.51
2023-02-13T12:49:22.552Z,20.42
2023-02-13T12:52:00.161Z,19.15
2023-02-13T12:54:42.859Z,18.55
2023-02-13T12:57:29.583Z,19.39
2023-02-13T13:00:23.363Z,21.12
2023-02-13T13:03:22.884Z,21.84
2023-02-13T13:06:11.819Z,21.92
2023-02-13T13:08:56.369Z,22.39
2023-02-13T13:11:38.907Z,22.28
2023-02-13T13:14:13.197Z,22.19
2023-02-13T13:16:51.536Z,21.92
2023-02-13T13:19:28.974Z,21.47
2023-02-13T13:22:01.673Z,21.20
2023-02-13T13:24:48.402Z,21.12
2023-02-13T13:27:21.537Z,20.72
2023-02-13T13:29:56.282Z,20.08
2023-02-13T13:32:27.274Z,19.75
2023-02-13T13:34:55.949Z,19.34
2023-02-13T13:37:32.637Z,18.84
2023-02-13T13:40:07.459Z,18.24
2023-02-13T13:42:41.342Z,17.77
2023-02-13T13:45:31.547Z,17.16
2023-02-13T13:48:18.047Z,16.73
2023-02-13T13:50:46.659Z,16.42
2023-02-13T13:53:19.097Z,16.10
2023-02-13T13:56:09.312Z,15.76
2023-02-13T13:58:43.238Z,15.54
2023-02-13T14:01:23.365Z,15.28
2023-02-13T14:03:54.614Z,15.02
2023-02-13T14:06:23.837Z,15.03
2023-02-13T14:09:37.957Z,14.85
2023-02-13T14:12:39.514Z,14.69
2023-02-13T14:15:46.236Z,14.51
2023-02-13T14:18:22.039Z,14.34
2023-02-13T14:20:56.909Z,14.43
2023-02-13T14:23:33.882Z,14.51
2023-02-13T14:26:13.037Z,14.39
2023-02-13T14:28:43.147Z,14.30
2023-02-13T14:31:22.455Z,14.18
2023-02-13T14:33:57.239Z,14.04
2023-02-13T14:36:32.276Z,13.96
2023-02-13T14:39:02.634Z,13.92
2023-02-13T14:41:43.343Z,13.81
2023-02-13T14:44:20.098Z,13.77
2023-02-13T14:46:50.442Z,13.68
2023-02-13T14:49:20.969Z,13.63
2023-02-13T14:51:52.444Z,13.57
2023-02-13T14:54:28.601Z,13.49
2023-02-13T14:57:06.025Z,13.42
2023-02-13T14:59:40.331Z,13.33
2023-02-13T15:02:19.931Z,13.28
2023-02-13T15:04:50.725Z,13.25
2023-02-13T15:07:23.960Z,13.19
2023-02-13T15:09:54.242Z,13.15
2023-02-13T15:12:30.358Z,13.15
2023-02-13T15:14:58.320Z,13.12
2023-02-13T15:17:30.052Z,13.09
2023-02-13T15:20:04.776Z,12.98
2023-02-13T15:22:36.628Z,12.92
2023-02-13T15:25:07.810Z,12.90
2023-02-13T15:27:41.658Z,12.86
2023-02-13T15:30:20.835Z,12.82
2023-02-13T15:32:56.453Z,12.79
2023-02-13T15:35:26.532Z,12.75
2023-02-13T15:37:55.891Z,12.72
2023-02-13T15:40:26.964Z,12.68
2023-02-13T15:42:55.573Z,12.66
2023-02-13T15:45:26.105Z,12.65
2023-02-13T15:47:56.000Z,12.62
2023-02-13T15:50:34.134Z,12.57
2023-02-13T15:53:05.875Z,12.56
2023-02-13T15:55:36.600Z,12.56
2023-02-13T15:58:05.019Z,12.54
2023-02-13T16:00:35.699Z,12.53
2023-02-13T16:03:06.936Z,12.53
2023-02-13T16:05:41.336Z,12.53
2023-02-13T16:08:31.302Z,12.51
2023-02-13T16:11:30.894Z,12.49
2023-02-13T16:14:17.955Z,12.46
2023-02-13T16:16:52.331Z,12.41
2023-02-13T16:19:38.034Z,12.39
2023-02-13T16:22:17.021Z,12.38
2023-02-13T16:24:51.832Z,12.33
2023-02-13T16:27:22.587Z,12.26
2023-02-13T16:29:55.637Z,12.23
2023-02-13T16:32:29.356Z,12.12
2023-02-13T16:34:58.207Z,12.05
2023-02-13T16:37:33.144Z,12.04
2023-02-13T16:40:34.406Z,12.04
2023-02-13T16:43:38.038Z,11.97
2023-02-13T16:46:34.171Z,11.93
2023-02-13T16:49:15.480Z,11.88
2023-02-13T16:51:45.704Z,11.85
2023-02-13T16:54:21.098Z,11.85
2023-02-13T16:56:51.301Z,11.83
2023-02-13T16:59:29.528Z,11.79
2023-02-13T17:02:18.090Z,11.76
2023-02-13T17:04:48.042Z,11.73
2023-02-13T17:07:19.501Z,11.70
2023-02-13T17:09:54.298Z,11.59
2023-02-13T17:12:22.443Z,11.40
2023-02-13T17:14:51.537Z,11.35
2023-02-13T17:17:20.835Z,11.22
2023-02-13T17:19:49.393Z,11.20
2023-02-13T17:22:34.162Z,11.23
2023-02-13T17:25:03.677Z,11.25
2023-02-13T17:27:31.673Z,11.25
2023-02-13T17:30:00.752Z,11.19
2023-02-13T17:32:29.094Z,11.18
2023-02-13T17:34:56.879Z,11.16
2023-02-13T17:37:26.163Z,11.09
2023-02-13T17:39:55.011Z,11.11
2023-02-13T17:42:25.679Z,11.03
2023-02-13T17:44:54.098Z,10.91
2023-02-13T17:47:23.793Z,10.85
2023-02-13T17:49:53.561Z,10.77
2023-02-13T17:52:27.614Z,10.74
2023-02-13T17:54:55.528Z,10.72
2023-02-13T17:57:23.228Z,10.72
2023-02-13T17:59:51.034Z,10.69
2023-02-13T18:02:20.310Z,10.67
2023-02-13T18:04:50.842Z,10.62
2023-02-13T18:07:21.021Z,10.54
2023-02-13T18:09:49.184Z,10.51
2023-02-13T18:12:18.693Z,10.48
2023-02-13T18:14:46.467Z,10.42
2023-02-13T18:17:14.407Z,10.31
2023-02-13T18:19:42.382Z,10.24
2023-02-13T18:22:11.924Z,10.21
2023-02-13T18:24:43.097Z,10.21
2023-02-13T18:27:12.615Z,10.17
2023-02-13T18:29:40.755Z,10.19
2023-02-13T18:32:10.768Z,10.06
2023-02-13T18:34:39.160Z,9.98
2023-02-13T18:37:08.241Z,9.93
2023-02-13T18:39:37.238Z,9.95
2023-02-13T18:42:05.260Z,9.97
2023-02-13T18:44:33.427Z,9.94
2023-02-13T18:47:01.746Z,9.78
2023-02-13T18:49:29.370Z,9.71
2023-02-13T18:51:57.069Z,9.64
2023-02-13T18:54:24.777Z,9.51
2023-02-13T18:56:53.768Z,9.46
2023-02-13T18:59:23.023Z,9.42
2023-02-13T19:01:50.801Z,9.39
2023-02-13T19:04:18.557Z,9.33
2023-02-13T19:06:46.286Z,9.31
2023-02-13T19:09:14.217Z,9.32
2023-02-13T19:11:42.830Z,9.28
2023-02-13T19:14:15.002Z,9.28
2023-02-13T19:16:43.151Z,9.25
2023-02-13T19:19:11.400Z,9.18
2023-02-13T19:21:40.082Z,9.18
2023-02-13T19:24:09.972Z,9.04
2023-02-13T19:26:38.288Z,8.91
2023-02-13T19:29:05.915Z,8.88
2023-02-13T19:31:35.435Z,8.81
2023-02-13T19:34:05.581Z,8.68
2023-02-13T19:36:33.512Z,8.63
2023-02-13T19:39:03.374Z,8.65
2023-02-13T19:41:31.234Z,8.63
2023-02-13T19:44:00.137Z,8.60
2023-02-13T19:46:29.609Z,8.57
2023-02-13T19:48:58.896Z,8.59
2023-02-13T19:51:28.511Z,8.59
2023-02-13T19:53:57.534Z,8.44
2023-02-13T19:56:27.012Z,8.47
2023-02-13T19:58:55.484Z,8.42
2023-02-13T20:01:25.465Z,8.33
2023-02-13T20:03:54.284Z,8.16
2023-02-13T20:06:25.513Z,8.07
2023-02-13T20:08:53.884Z,8.06
2023-02-13T20:11:23.019Z,8.05
2023-02-13T20:13:56.508Z,8.00
2023-02-13T20:16:24.766Z,8.04
2023-02-13T20:18:52.570Z,7.90
2023-02-13T20:21:20.908Z,7.85
2023-02-13T20:23:51.876Z,7.86
2023-02-13T20:26:20.454Z,7.86
2023-02-13T20:28:48.881Z,7.85
2023-02-13T20:31:18.285Z,7.82
2023-02-13T20:33:47.148Z,7.80
2023-02-13T20:36:16.624Z,7.67
2023-02-13T20:38:44.447Z,7.59
2023-02-13T20:41:15.969Z,7.60
2023-02-13T20:43:43.747Z,7.54
2023-02-13T20:46:12.980Z,7.56
2023-02-13T20:48:41.816Z,7.54
2023-02-13T20:51:11.938Z,7.51
2023-02-13T20:53:39.870Z,7.50
2023-02-13T20:56:10.620Z,7.46
2023-02-13T20:58:41.259Z,7.41
2023-02-13T21:01:12.851Z,7.35
2023-02-13T21:03:41.205Z,7.43
2023-02-13T21:06:10.685Z,7.42
2023-02-13T21:08:38.979Z,7.48
2023-02-13T21:11:08.207Z,7.46
2023-02-13T21:13:36.475Z,7.44
2023-02-13T21:16:07.744Z,7.30
2023-02-13T21:18:35.478Z,7.20
2023-02-13T21:21:03.506Z,7.25
2023-02-13T21:23:31.612Z,7.16
2023-02-13T21:26:02.873Z,7.24
2023-02-13T21:28:30.572Z,7.21
2023-02-13T21:30:58.584Z,7.21
2023-02-13T21:33:27.803Z,7.15
2023-02-13T21:36:01.638Z,7.16
2023-02-13T21:38:29.350Z,7.09
2023-02-13T21:40:58.006Z,7.15
2023-02-13T21:43:25.891Z,7.12
2023-02-13T21:45:53.520Z,6.96
2023-02-13T21:48:21.237Z,6.98
2023-02-13T21:50:50.302Z,6.98
2023-02-13T21:53:17.989Z,6.94
2023-02-13T21:55:45.597Z,6.87
2023-02-13T21:58:13.328Z,6.90
2023-02-13T22:00:41.007Z,6.91
2023-02-13T22:03:08.764Z,6.98
2023-02-13T22:05:36.586Z,6.92
2023-02-13T22:08:11.758Z,6.88
2023-02-13T22:10:39.408Z,6.81
2023-02-13T22:13:07.237Z,6.79
2023-02-13T22:15:34.885Z,6.81
2023-02-13T22:18:02.542Z,6.86
2023-02-13T22:20:30.174Z,6.77
2023-02-13T22:22:57.771Z,6.66
2023-02-13T22:25:26.873Z,6.56
2023-02-13T22:27:54.573Z,6.56
2023-02-13T22:30:22.314Z,6.54
2023-02-13T22:32:50.022Z,6.54
2023-02-13T22:35:17.754Z,6.57
2023-02-13T22:37:45.392Z,6.58
2023-02-13T22:40:13.674Z,6.55
2023-02-13T22:42:42.629Z,6.59
2023-02-13T22:45:10.756Z,6.59
2023-02-13T22:47:38.407Z,6.58
2023-02-13T22:50:07.390Z,6.61
2023-02-13T22:52:35.053Z,6.64
2023-02-13T22:55:02.706Z,6.51
2023-02-13T22:57:30.382Z,6.44
2023-02-13T22:59:59.353Z,6.39
2023-02-13T23:02:27.452Z,6.32
2023-02-13T23:04:55.089Z,6.29
2023-02-13T23:07:22.756Z,6.27
2023-02-13T23:09:50.623Z,6.29
2023-02-13T23:12:36.157Z,6.34
2023-02-13T23:15:06.593Z,6.37
2023-02-13T23:17:51.919Z,6.35
2023-02-13T23:20:21.159Z,6.37
2023-02-13T23:22:49.074Z,6.36
2023-02-13T23:25:16.857Z,6.41
2023-02-13T23:27:44.748Z,6.42
2023-02-13T23:30:16.425Z,6.42
2023-02-13T23:32:44.192Z,6.43
2023-02-13T23:35:12.112Z,6.38
2023-02-13T23:37:39.789Z,6.39
2023-02-13T23:40:09.530Z,6.44
2023-02-13T23:42:37.238Z,6.42
2023-02-13T23:45:05.693Z,6.48
2023-02-13T23:47:34.685Z,6.48
2023-02-13T23:50:02.442Z,6.47
2023-02-13T23:52:30.200Z,6.47
2023-02-13T23:54:57.921Z,6.48
2023-02-13T23:57:25.637Z,6.45
2023-02-13T23:59:53.389Z,6.36
